Bucharest, Romania
Current Conditions -  °F | °C
As of 6:00 AM on Tuesday 23 Dec 2014 (Local Time) from LRBS Reporting Station
Clear Clear  
Wind Chill: 41°   Ceiling: Unl
Heat Index: 41°   Visibility: 6mi
Dew Point: 34°   Wind: 2mph
Humidity: 76%   Direction: 270°W
Pressure: 29.97"   Gusts: NA
Location:  44.44°N, 26.1°E
Report Text: LRBS 230300Z 27002KT CAVOK 05/01 Q1015 NOSIG
Loading
Personal Weather Stations






























Interactive Weather Map New forecast layout! Learn more

10-Day Weather Forecast

Advertisements
Track Severe Weather on mobile